createdAt,value
2023-04-15T00:04:57.661Z,9.33
2023-04-15T00:10:00.452Z,9.35
2023-04-15T00:15:04.278Z,9.35
2023-04-15T00:20:08.178Z,9.34
2023-04-15T00:25:11.738Z,9.35
2023-04-15T00:30:14.737Z,9.36
2023-04-15T00:35:17.637Z,9.36
2023-04-15T00:40:24.719Z,9.39
2023-04-15T00:45:28.328Z,9.40
2023-04-15T00:50:31.162Z,9.39
2023-04-15T00:55:34.705Z,9.38
2023-04-15T01:00:37.689Z,9.37
2023-04-15T01:05:40.487Z,9.36
2023-04-15T01:10:44.112Z,9.34
2023-04-15T01:15:47.436Z,9.35
2023-04-15T01:20:50.171Z,9.34
2023-04-15T01:25:53.928Z,9.31
2023-04-15T01:31:14.620Z,9.32
2023-04-15T01:36:17.461Z,9.31
2023-04-15T01:41:28.257Z,9.28
2023-04-15T01:46:31.631Z,9.25
2023-04-15T01:51:34.493Z,9.26
2023-04-15T01:56:37.582Z,9.26
2023-04-15T02:01:41.200Z,9.24
2023-04-15T02:06:44.247Z,9.23
2023-04-15T02:11:47.108Z,9.24
2023-04-15T02:16:49.835Z,9.24
2023-04-15T02:21:52.720Z,9.22
2023-04-15T02:26:56.140Z,9.26
2023-04-15T02:31:59.182Z,9.27
2023-04-15T02:37:03.997Z,9.26
2023-04-15T02:42:07.422Z,9.25
2023-04-15T02:47:11.757Z,9.27
2023-04-15T02:52:14.473Z,9.27
2023-04-15T02:57:17.242Z,9.26
2023-04-15T03:02:20.076Z,9.28
2023-04-15T03:07:23.039Z,9.30
2023-04-15T03:12:26.157Z,9.26
2023-04-15T03:17:28.824Z,9.25
2023-04-15T03:22:32.671Z,9.27
2023-04-15T03:27:35.477Z,9.27
2023-04-15T03:32:38.549Z,9.26
2023-04-15T03:37:41.487Z,9.27
2023-04-15T03:42:44.136Z,9.27
2023-04-15T03:47:47.535Z,9.28
2023-04-15T03:52:51.324Z,9.31
2023-04-15T03:57:54.329Z,9.32
2023-04-15T04:02:57.353Z,9.31
2023-04-15T04:08:00.952Z,9.34
2023-04-15T04:13:03.657Z,9.36
2023-04-15T04:18:06.676Z,9.36
2023-04-15T04:23:09.564Z,9.38
2023-04-15T04:28:12.591Z,9.42
2023-04-15T04:33:15.580Z,9.45
2023-04-15T04:38:18.271Z,9.48
2023-04-15T04:43:21.277Z,9.57
2023-04-15T04:48:24.183Z,9.66
2023-04-15T04:53:28.147Z,9.69
2023-04-15T04:58:31.029Z,9.75
2023-04-15T05:03:33.813Z,9.78
2023-04-15T05:08:38.612Z,9.75
2023-04-15T05:13:44.012Z,9.84
2023-04-15T05:18:46.838Z,9.94
2023-04-15T05:23:49.773Z,10.00
2023-04-15T05:28:52.430Z,10.01
2023-04-15T05:33:55.423Z,9.98
2023-04-15T05:38:58.240Z,9.98
2023-04-15T05:44:02.076Z,9.96
2023-04-15T05:49:04.867Z,9.93
2023-04-15T05:54:08.080Z,10.02
2023-04-15T05:59:11.191Z,10.11
2023-04-15T06:04:14.021Z,10.14
2023-04-15T06:09:17.177Z,10.13
2023-04-15T06:14:19.866Z,10.14
2023-04-15T06:19:22.690Z,10.22
2023-04-15T06:24:28.081Z,10.35
2023-04-15T06:29:30.786Z,10.43
2023-04-15T06:34:35.111Z,10.57
2023-04-15T06:39:38.434Z,10.54
2023-04-15T06:44:41.339Z,10.47
2023-04-15T06:49:44.977Z,10.45
2023-04-15T06:54:47.724Z,10.49
2023-04-15T06:59:51.659Z,10.55
2023-04-15T07:04:54.559Z,10.62
2023-04-15T07:09:57.340Z,10.80
2023-04-15T07:15:00.062Z,10.89
2023-04-15T07:20:05.000Z,10.89
2023-04-15T07:25:09.153Z,10.85
2023-04-15T07:30:13.964Z,10.80
2023-04-15T07:35:16.693Z,10.74
2023-04-15T07:40:19.904Z,10.73
2023-04-15T07:45:22.894Z,10.69
2023-04-15T07:50:26.165Z,10.63
2023-04-15T07:55:30.756Z,10.60
2023-04-15T08:00:33.588Z,10.61
2023-04-15T08:05:36.342Z,10.62
2023-04-15T08:10:39.050Z,10.59
2023-04-15T08:15:42.213Z,10.56
2023-04-15T08:20:44.957Z,10.59
2023-04-15T08:25:47.649Z,10.66
2023-04-15T08:30:53.016Z,10.73
2023-04-15T08:35:55.891Z,10.81
2023-04-15T08:41:03.772Z,10.90
2023-04-15T08:46:07.671Z,11.02
2023-04-15T08:51:11.111Z,11.10
2023-04-15T08:56:15.826Z,11.07
2023-04-15T09:01:18.921Z,10.95
2023-04-15T09:06:23.176Z,10.96
2023-04-15T09:11:26.108Z,11.05
2023-04-15T09:16:28.895Z,11.06
2023-04-15T09:21:32.205Z,11.04
2023-04-15T09:26:37.176Z,11.12
2023-04-15T09:31:40.810Z,11.26
2023-04-15T09:36:46.810Z,11.34
2023-04-15T09:42:11.056Z,11.29
2023-04-15T09:47:32.907Z,11.17
2023-04-15T09:52:43.076Z,11.05
2023-04-15T09:57:47.578Z,11.00
2023-04-15T10:02:52.139Z,11.06
2023-04-15T10:07:55.305Z,11.08
2023-04-15T10:12:58.071Z,10.92
2023-04-15T10:18:02.002Z,10.79
2023-04-15T10:23:06.398Z,10.73
2023-04-15T10:28:11.195Z,10.72
2023-04-15T10:33:17.279Z,10.75
2023-04-15T10:38:40.439Z,10.86
2023-04-15T10:43:47.946Z,10.93
2023-04-15T10:48:52.720Z,10.99
2023-04-15T10:54:02.265Z,11.01
2023-04-15T10:59:05.913Z,10.98
2023-04-15T11:04:08.785Z,10.83
2023-04-15T11:09:32.264Z,10.70
2023-04-15T11:14:39.816Z,10.63
2023-04-15T11:19:43.689Z,10.54
2023-04-15T11:24:50.638Z,10.53
2023-04-15T11:29:53.405Z,10.50
2023-04-15T11:34:56.163Z,10.42
2023-04-15T11:39:59.119Z,10.41
2023-04-15T11:45:09.612Z,10.51
2023-04-15T11:50:22.639Z,10.64
2023-04-15T11:55:26.275Z,10.74
2023-04-15T12:00:29.335Z,10.79
2023-04-15T12:05:32.367Z,10.77
2023-04-15T12:10:35.218Z,10.70
2023-04-15T12:15:39.316Z,10.70
2023-04-15T12:20:45.704Z,10.76
2023-04-15T12:25:52.784Z,10.67
2023-04-15T12:30:55.837Z,10.54
2023-04-15T12:35:58.425Z,10.45
2023-04-15T12:41:01.283Z,10.45
2023-04-15T12:46:04.996Z,10.44
2023-04-15T12:51:08.112Z,10.43
2023-04-15T12:56:10.823Z,10.34
2023-04-15T13:01:13.640Z,10.24
2023-04-15T13:06:17.025Z,10.16
2023-04-15T13:11:20.674Z,10.09
2023-04-15T13:16:26.634Z,10.05
2023-04-15T13:21:29.875Z,9.99
2023-04-15T13:26:32.958Z,10.00
2023-04-15T13:31:35.689Z,10.24
2023-04-15T13:36:38.977Z,10.56
2023-04-15T13:41:41.775Z,11.18
2023-04-15T13:46:44.490Z,11.56
2023-04-15T13:51:47.206Z,11.57
2023-04-15T13:56:50.059Z,11.45
2023-04-15T14:01:53.206Z,11.17
2023-04-15T14:06:56.478Z,10.83
2023-04-15T14:12:00.224Z,10.56
2023-04-15T14:17:04.750Z,10.38
2023-04-15T14:22:07.557Z,10.27
2023-04-15T14:27:12.169Z,10.18
2023-04-15T14:32:16.158Z,10.27
2023-04-15T14:37:20.157Z,10.30
2023-04-15T14:42:22.864Z,10.06
2023-04-15T14:47:25.932Z,9.83
2023-04-15T14:52:28.804Z,9.77
2023-04-15T14:57:31.487Z,9.79
2023-04-15T15:02:39.682Z,9.92
2023-04-15T15:07:42.810Z,10.02
2023-04-15T15:12:45.566Z,10.02
2023-04-15T15:17:48.443Z,9.99
2023-04-15T15:22:51.525Z,9.87
2023-04-15T15:27:54.154Z,9.67
2023-04-15T15:32:57.007Z,9.58
2023-04-15T15:38:01.527Z,9.52
2023-04-15T15:43:04.869Z,9.47
2023-04-15T15:48:07.779Z,9.44
2023-04-15T15:53:12.516Z,9.36
2023-04-15T15:58:15.637Z,9.28
2023-04-15T16:03:18.510Z,9.24
2023-04-15T16:08:21.536Z,9.16
2023-04-15T16:13:24.239Z,9.07
2023-04-15T16:18:27.118Z,8.97
2023-04-15T16:23:31.242Z,8.88
2023-04-15T16:28:34.145Z,8.81
2023-04-15T16:33:37.107Z,8.76
2023-04-15T16:38:40.061Z,8.75
2023-04-15T16:43:42.890Z,8.72
2023-04-15T16:48:45.686Z,8.65
2023-04-15T16:53:49.303Z,8.57
2023-04-15T16:58:52.629Z,8.48
2023-04-15T17:03:56.365Z,8.37
2023-04-15T17:08:59.650Z,8.26
2023-04-15T17:14:03.160Z,8.17
2023-04-15T17:19:06.553Z,8.08
2023-04-15T17:24:09.438Z,8.00
2023-04-15T17:29:12.495Z,7.93
2023-04-15T17:34:16.215Z,7.86
2023-04-15T17:39:19.337Z,7.80
2023-04-15T17:44:23.517Z,7.75
2023-04-15T17:49:28.435Z,7.69
2023-04-15T17:54:31.220Z,7.60
2023-04-15T17:59:34.198Z,7.52
2023-04-15T18:04:37.026Z,7.45
2023-04-15T18:09:39.979Z,7.37
2023-04-15T18:14:42.822Z,7.27
2023-04-15T18:19:46.540Z,7.15
2023-04-15T18:24:52.109Z,7.07
2023-04-15T18:29:54.920Z,6.97
2023-04-15T18:34:57.720Z,6.89
2023-04-15T18:40:00.619Z,6.84
2023-04-15T18:45:03.840Z,6.77
2023-04-15T18:50:08.192Z,6.71
2023-04-15T18:55:10.984Z,6.67
2023-04-15T19:00:15.923Z,6.61
2023-04-15T19:05:18.782Z,6.59
2023-04-15T19:10:21.936Z,6.55
2023-04-15T19:15:24.615Z,6.51
2023-04-15T19:20:27.441Z,6.49
2023-04-15T19:25:31.324Z,6.46
2023-04-15T19:30:34.182Z,6.44
2023-04-15T19:35:38.420Z,6.44
2023-04-15T19:40:41.134Z,6.40
2023-04-15T19:45:46.854Z,6.39
2023-04-15T19:50:50.147Z,6.40
2023-04-15T19:55:52.877Z,6.39
2023-04-15T20:00:55.643Z,6.37
2023-04-15T20:05:58.691Z,6.37
2023-04-15T20:11:01.821Z,6.38
2023-04-15T20:16:06.056Z,6.38
2023-04-15T20:21:08.894Z,6.36
2023-04-15T20:26:11.606Z,6.36
2023-04-15T20:31:14.438Z,6.41
2023-04-15T20:36:17.343Z,6.47
2023-04-15T20:41:21.669Z,6.49
2023-04-15T20:46:26.562Z,6.52
2023-04-15T20:51:37.343Z,6.54
2023-04-15T20:56:40.332Z,6.54
2023-04-15T21:01:43.578Z,6.57
2023-04-15T21:06:47.669Z,6.62
2023-04-15T21:16:57.646Z,6.61
2023-04-15T21:22:00.671Z,6.64
2023-04-15T21:27:03.400Z,6.65
2023-04-15T21:32:06.686Z,6.63
2023-04-15T21:37:09.446Z,6.63
2023-04-15T21:42:12.222Z,6.63
2023-04-15T21:47:15.020Z,6.60
2023-04-15T21:52:17.877Z,6.57
2023-04-15T21:57:20.689Z,6.58
2023-04-15T22:02:23.563Z,6.57
2023-04-15T22:07:26.590Z,6.54
2023-04-15T22:12:29.291Z,6.54
2023-04-15T22:17:32.013Z,6.52
2023-04-15T22:22:44.411Z,6.50
2023-04-15T22:27:47.628Z,6.52
2023-04-15T22:32:50.460Z,6.53
2023-04-15T22:37:53.334Z,6.51
2023-04-15T22:42:56.325Z,6.49
2023-04-15T22:47:59.006Z,6.47
2023-04-15T22:53:01.914Z,6.47
2023-04-15T22:58:04.737Z,6.46
2023-04-15T23:03:08.007Z,6.48
2023-04-15T23:08:10.953Z,6.48
2023-04-15T23:13:13.659Z,6.48
2023-04-15T23:18:16.458Z,6.46
2023-04-15T23:23:19.378Z,6.45
2023-04-15T23:28:22.140Z,6.41
2023-04-15T23:33:24.861Z,6.37
2023-04-15T23:38:27.531Z,6.39
2023-04-15T23:43:30.464Z,6.38
2023-04-15T23:48:33.370Z,6.35
2023-04-15T23:53:36.386Z,6.34
2023-04-15T23:58:39.112Z,6.36
